sensor_id;sensor_type;location;lat;lon;timestamp;P1;durP1;ratioP1;P2;durP2;ratioP2
77276;SDS011;66330;52.166;9.978;2023-09-30T00:00:55;4.17;;;2.60;;
77276;SDS011;66330;52.166;9.978;2023-09-30T00:03:21;5.30;;;2.40;;
77276;SDS011;66330;52.166;9.978;2023-09-30T00:05:47;9.70;;;2.23;;
77276;SDS011;66330;52.166;9.978;2023-09-30T00:08:12;4.00;;;2.00;;
77276;SDS011;66330;52.166;9.978;2023-09-30T00:10:38;3.30;;;2.20;;
77276;SDS011;66330;52.166;9.978;2023-09-30T00:13:03;2.47;;;1.47;;
77276;SDS011;66330;52.166;9.978;2023-09-30T00:15:31;5.67;;;2.40;;
77276;SDS011;66330;52.166;9.978;2023-09-30T00:17:57;6.07;;;2.50;;
77276;SDS011;66330;52.166;9.978;2023-09-30T00:20:23;4.70;;;1.63;;
77276;SDS011;66330;52.166;9.978;2023-09-30T00:22:48;4.07;;;2.03;;
77276;SDS011;66330;52.166;9.978;2023-09-30T00:25:14;2.83;;;1.60;;
77276;SDS011;66330;52.166;9.978;2023-09-30T00:27:40;2.73;;;1.80;;
77276;SDS011;66330;52.166;9.978;2023-09-30T00:30:05;4.70;;;1.77;;
77276;SDS011;66330;52.166;9.978;2023-09-30T00:32:31;3.47;;;2.00;;
77276;SDS011;66330;52.166;9.978;2023-09-30T00:34:58;2.50;;;1.67;;
77276;SDS011;66330;52.166;9.978;2023-09-30T00:37:25;3.70;;;1.90;;
77276;SDS011;66330;52.166;9.978;2023-09-30T00:39:52;3.53;;;1.70;;
77276;SDS011;66330;52.166;9.978;2023-09-30T00:42:18;3.63;;;1.80;;
77276;SDS011;66330;52.166;9.978;2023-09-30T00:44:45;3.43;;;1.80;;
77276;SDS011;66330;52.166;9.978;2023-09-30T00:47:11;5.33;;;1.80;;
77276;SDS011;66330;52.166;9.978;2023-09-30T00:49:37;3.00;;;1.60;;
77276;SDS011;66330;52.166;9.978;2023-09-30T00:52:03;2.87;;;1.53;;
77276;SDS011;66330;52.166;9.978;2023-09-30T00:54:29;4.67;;;1.80;;
77276;SDS011;66330;52.166;9.978;2023-09-30T00:56:55;3.40;;;1.70;;
77276;SDS011;66330;52.166;9.978;2023-09-30T00:59:22;4.30;;;2.23;;
77276;SDS011;66330;52.166;9.978;2023-09-30T01:01:50;4.60;;;1.90;;
77276;SDS011;66330;52.166;9.978;2023-09-30T01:04:15;5.30;;;2.10;;
77276;SDS011;66330;52.166;9.978;2023-09-30T01:06:41;4.77;;;2.57;;
77276;SDS011;66330;52.166;9.978;2023-09-30T01:09:07;4.43;;;2.60;;
77276;SDS011;66330;52.166;9.978;2023-09-30T01:11:34;3.70;;;1.70;;
77276;SDS011;66330;52.166;9.978;2023-09-30T01:13:59;5.17;;;2.30;;
77276;SDS011;66330;52.166;9.978;2023-09-30T01:16:25;5.03;;;2.80;;
77276;SDS011;66330;52.166;9.978;2023-09-30T01:18:51;5.00;;;2.50;;
77276;SDS011;66330;52.166;9.978;2023-09-30T01:21:16;3.50;;;2.00;;
77276;SDS011;66330;52.166;9.978;2023-09-30T01:23:43;5.80;;;3.13;;
77276;SDS011;66330;52.166;9.978;2023-09-30T01:26:11;3.83;;;2.10;;
77276;SDS011;66330;52.166;9.978;2023-09-30T01:28:38;2.80;;;2.33;;
77276;SDS011;66330;52.166;9.978;2023-09-30T01:31:04;7.13;;;2.60;;
77276;SDS011;66330;52.166;9.978;2023-09-30T01:33:31;3.90;;;2.63;;
77276;SDS011;66330;52.166;9.978;2023-09-30T01:35:57;4.10;;;2.10;;
77276;SDS011;66330;52.166;9.978;2023-09-30T01:38:24;5.00;;;2.77;;
77276;SDS011;66330;52.166;9.978;2023-09-30T01:40:50;4.40;;;2.53;;
77276;SDS011;66330;52.166;9.978;2023-09-30T01:43:16;6.47;;;2.60;;
77276;SDS011;66330;52.166;9.978;2023-09-30T01:45:42;7.40;;;2.70;;
77276;SDS011;66330;52.166;9.978;2023-09-30T01:48:08;4.57;;;2.07;;
77276;SDS011;66330;52.166;9.978;2023-09-30T01:50:37;5.10;;;2.77;;
77276;SDS011;66330;52.166;9.978;2023-09-30T01:53:06;5.47;;;2.33;;
77276;SDS011;66330;52.166;9.978;2023-09-30T01:55:32;4.20;;;2.83;;
77276;SDS011;66330;52.166;9.978;2023-09-30T01:57:58;3.43;;;2.37;;
77276;SDS011;66330;52.166;9.978;2023-09-30T02:00:24;3.23;;;2.17;;
77276;SDS011;66330;52.166;9.978;2023-09-30T02:02:50;6.17;;;2.73;;
77276;SDS011;66330;52.166;9.978;2023-09-30T02:05:15;3.03;;;2.20;;
77276;SDS011;66330;52.166;9.978;2023-09-30T02:07:41;4.80;;;2.40;;
77276;SDS011;66330;52.166;9.978;2023-09-30T02:10:07;7.10;;;3.10;;
77276;SDS011;66330;52.166;9.978;2023-09-30T02:12:33;3.90;;;2.33;;
77276;SDS011;66330;52.166;9.978;2023-09-30T02:14:58;3.20;;;1.90;;
77276;SDS011;66330;52.166;9.978;2023-09-30T02:17:24;2.80;;;2.13;;
77276;SDS011;66330;52.166;9.978;2023-09-30T02:19:49;2.60;;;1.77;;
77276;SDS011;66330;52.166;9.978;2023-09-30T02:22:15;5.33;;;1.73;;
77276;SDS011;66330;52.166;9.978;2023-09-30T02:24:41;2.60;;;1.77;;
77276;SDS011;66330;52.166;9.978;2023-09-30T02:27:06;2.97;;;1.97;;
77276;SDS011;66330;52.166;9.978;2023-09-30T02:29:33;1.83;;;1.50;;
77276;SDS011;66330;52.166;9.978;2023-09-30T02:31:58;2.87;;;1.63;;
77276;SDS011;66330;52.166;9.978;2023-09-30T02:34:24;3.70;;;1.43;;
77276;SDS011;66330;52.166;9.978;2023-09-30T02:36:49;3.33;;;1.83;;
77276;SDS011;66330;52.166;9.978;2023-09-30T02:39:15;2.50;;;1.77;;
77276;SDS011;66330;52.166;9.978;2023-09-30T02:41:41;4.60;;;1.80;;
77276;SDS011;66330;52.166;9.978;2023-09-30T02:44:07;4.60;;;2.07;;
77276;SDS011;66330;52.166;9.978;2023-09-30T02:46:33;4.30;;;1.90;;
77276;SDS011;66330;52.166;9.978;2023-09-30T02:49:00;3.10;;;1.50;;
77276;SDS011;66330;52.166;9.978;2023-09-30T02:51:27;2.33;;;2.00;;
77276;SDS011;66330;52.166;9.978;2023-09-30T02:53:53;4.83;;;2.00;;
77276;SDS011;66330;52.166;9.978;2023-09-30T02:56:18;3.40;;;2.13;;
77276;SDS011;66330;52.166;9.978;2023-09-30T02:58:45;4.40;;;2.77;;
77276;SDS011;66330;52.166;9.978;2023-09-30T03:01:13;4.93;;;2.10;;
77276;SDS011;66330;52.166;9.978;2023-09-30T03:03:41;4.83;;;2.37;;
77276;SDS011;66330;52.166;9.978;2023-09-30T03:06:09;4.47;;;2.23;;
77276;SDS011;66330;52.166;9.978;2023-09-30T03:08:35;5.90;;;2.00;;
77276;SDS011;66330;52.166;9.978;2023-09-30T03:11:01;4.87;;;2.60;;
77276;SDS011;66330;52.166;9.978;2023-09-30T03:13:27;6.17;;;2.30;;
77276;SDS011;66330;52.166;9.978;2023-09-30T03:15:53;5.00;;;2.37;;
77276;SDS011;66330;52.166;9.978;2023-09-30T03:18:18;4.77;;;2.23;;
77276;SDS011;66330;52.166;9.978;2023-09-30T03:20:51;4.43;;;2.47;;
77276;SDS011;66330;52.166;9.978;2023-09-30T03:23:21;5.50;;;2.07;;
77276;SDS011;66330;52.166;9.978;2023-09-30T03:25:47;3.97;;;2.50;;
77276;SDS011;66330;52.166;9.978;2023-09-30T03:28:13;3.50;;;2.17;;
77276;SDS011;66330;52.166;9.978;2023-09-30T03:30:40;4.40;;;2.47;;
77276;SDS011;66330;52.166;9.978;2023-09-30T03:33:05;4.33;;;2.30;;
77276;SDS011;66330;52.166;9.978;2023-09-30T03:35:31;4.17;;;2.40;;
77276;SDS011;66330;52.166;9.978;2023-09-30T03:37:57;5.97;;;2.47;;
77276;SDS011;66330;52.166;9.978;2023-09-30T03:40:23;6.47;;;2.37;;
77276;SDS011;66330;52.166;9.978;2023-09-30T03:42:53;7.80;;;2.10;;
77276;SDS011;66330;52.166;9.978;2023-09-30T03:45:19;3.53;;;2.10;;
77276;SDS011;66330;52.166;9.978;2023-09-30T03:47:44;4.50;;;2.40;;
77276;SDS011;66330;52.166;9.978;2023-09-30T03:50:10;5.37;;;2.20;;
77276;SDS011;66330;52.166;9.978;2023-09-30T03:52:40;5.57;;;3.20;;
77276;SDS011;66330;52.166;9.978;2023-09-30T03:55:09;5.30;;;2.70;;
77276;SDS011;66330;52.166;9.978;2023-09-30T03:57:40;5.87;;;2.60;;
77276;SDS011;66330;52.166;9.978;2023-09-30T04:00:05;5.03;;;3.50;;
77276;SDS011;66330;52.166;9.978;2023-09-30T04:02:32;5.30;;;3.00;;
77276;SDS011;66330;52.166;9.978;2023-09-30T04:04:59;5.53;;;2.60;;
77276;SDS011;66330;52.166;9.978;2023-09-30T04:07:25;4.20;;;2.33;;
77276;SDS011;66330;52.166;9.978;2023-09-30T04:09:54;5.53;;;2.30;;
77276;SDS011;66330;52.166;9.978;2023-09-30T04:12:20;3.60;;;1.90;;
77276;SDS011;66330;52.166;9.978;2023-09-30T04:14:48;4.00;;;2.80;;
77276;SDS011;66330;52.166;9.978;2023-09-30T04:17:14;6.83;;;2.60;;
77276;SDS011;66330;52.166;9.978;2023-09-30T04:19:39;4.60;;;3.43;;
77276;SDS011;66330;52.166;9.978;2023-09-30T04:22:05;3.47;;;2.50;;
77276;SDS011;66330;52.166;9.978;2023-09-30T04:24:30;7.33;;;3.10;;
77276;SDS011;66330;52.166;9.978;2023-09-30T04:26:56;4.23;;;3.00;;
77276;SDS011;66330;52.166;9.978;2023-09-30T04:29:27;3.43;;;2.13;;
77276;SDS011;66330;52.166;9.978;2023-09-30T04:31:54;4.23;;;3.53;;
77276;SDS011;66330;52.166;9.978;2023-09-30T04:34:20;3.07;;;1.60;;
77276;SDS011;66330;52.166;9.978;2023-09-30T04:36:46;3.63;;;2.20;;
77276;SDS011;66330;52.166;9.978;2023-09-30T04:39:12;3.33;;;1.87;;
77276;SDS011;66330;52.166;9.978;2023-09-30T04:41:38;5.60;;;2.43;;
77276;SDS011;66330;52.166;9.978;2023-09-30T04:44:06;3.57;;;2.27;;
77276;SDS011;66330;52.166;9.978;2023-09-30T04:46:35;4.00;;;2.13;;
77276;SDS011;66330;52.166;9.978;2023-09-30T04:49:01;4.67;;;2.07;;
77276;SDS011;66330;52.166;9.978;2023-09-30T04:51:27;6.60;;;2.07;;
77276;SDS011;66330;52.166;9.978;2023-09-30T04:53:53;6.23;;;3.77;;
77276;SDS011;66330;52.166;9.978;2023-09-30T04:56:20;3.17;;;2.33;;
77276;SDS011;66330;52.166;9.978;2023-09-30T04:58:45;3.87;;;2.10;;
77276;SDS011;66330;52.166;9.978;2023-09-30T05:01:12;6.37;;;2.60;;
77276;SDS011;66330;52.166;9.978;2023-09-30T05:03:37;3.43;;;1.60;;
77276;SDS011;66330;52.166;9.978;2023-09-30T05:06:03;8.77;;;2.73;;
77276;SDS011;66330;52.166;9.978;2023-09-30T05:08:29;4.27;;;2.00;;
77276;SDS011;66330;52.166;9.978;2023-09-30T05:10:56;4.60;;;2.20;;
77276;SDS011;66330;52.166;9.978;2023-09-30T05:13:21;3.67;;;1.87;;
77276;SDS011;66330;52.166;9.978;2023-09-30T05:15:50;3.17;;;1.67;;
77276;SDS011;66330;52.166;9.978;2023-09-30T05:18:16;3.50;;;1.80;;
77276;SDS011;66330;52.166;9.978;2023-09-30T05:20:42;1.97;;;1.83;;
77276;SDS011;66330;52.166;9.978;2023-09-30T05:23:09;3.50;;;2.20;;
77276;SDS011;66330;52.166;9.978;2023-09-30T05:25:37;4.27;;;2.60;;
77276;SDS011;66330;52.166;9.978;2023-09-30T05:28:03;7.13;;;2.10;;
77276;SDS011;66330;52.166;9.978;2023-09-30T05:30:30;4.63;;;2.30;;
77276;SDS011;66330;52.166;9.978;2023-09-30T05:32:56;3.30;;;2.37;;
77276;SDS011;66330;52.166;9.978;2023-09-30T05:35:24;6.53;;;1.70;;
77276;SDS011;66330;52.166;9.978;2023-09-30T05:37:50;4.73;;;2.50;;
77276;SDS011;66330;52.166;9.978;2023-09-30T05:40:18;5.33;;;3.13;;
77276;SDS011;66330;52.166;9.978;2023-09-30T05:42:50;4.00;;;2.17;;
77276;SDS011;66330;52.166;9.978;2023-09-30T05:45:16;3.17;;;2.07;;
77276;SDS011;66330;52.166;9.978;2023-09-30T05:47:42;4.60;;;2.37;;
77276;SDS011;66330;52.166;9.978;2023-09-30T05:50:09;4.80;;;2.40;;
77276;SDS011;66330;52.166;9.978;2023-09-30T05:52:39;3.60;;;2.40;;
77276;SDS011;66330;52.166;9.978;2023-09-30T05:55:05;4.67;;;2.33;;
77276;SDS011;66330;52.166;9.978;2023-09-30T05:57:31;8.27;;;2.30;;
77276;SDS011;66330;52.166;9.978;2023-09-30T05:59:58;3.63;;;2.40;;
77276;SDS011;66330;52.166;9.978;2023-09-30T06:02:23;3.27;;;1.80;;
77276;SDS011;66330;52.166;9.978;2023-09-30T06:04:49;4.07;;;2.20;;
77276;SDS011;66330;52.166;9.978;2023-09-30T06:07:17;3.60;;;1.93;;
77276;SDS011;66330;52.166;9.978;2023-09-30T06:09:44;7.70;;;2.60;;
77276;SDS011;66330;52.166;9.978;2023-09-30T06:12:12;6.40;;;3.30;;
77276;SDS011;66330;52.166;9.978;2023-09-30T06:14:37;6.57;;;2.40;;
77276;SDS011;66330;52.166;9.978;2023-09-30T06:17:04;7.07;;;1.93;;
77276;SDS011;66330;52.166;9.978;2023-09-30T06:19:30;7.67;;;2.73;;
77276;SDS011;66330;52.166;9.978;2023-09-30T06:21:56;3.27;;;2.10;;
77276;SDS011;66330;52.166;9.978;2023-09-30T06:24:21;5.33;;;2.03;;
77276;SDS011;66330;52.166;9.978;2023-09-30T06:26:47;2.77;;;2.30;;
77276;SDS011;66330;52.166;9.978;2023-09-30T06:29:14;2.77;;;1.90;;
77276;SDS011;66330;52.166;9.978;2023-09-30T06:31:39;3.90;;;1.70;;
77276;SDS011;66330;52.166;9.978;2023-09-30T06:34:05;8.33;;;2.30;;
77276;SDS011;66330;52.166;9.978;2023-09-30T06:36:31;5.07;;;3.17;;
77276;SDS011;66330;52.166;9.978;2023-09-30T06:39:02;6.90;;;2.80;;
77276;SDS011;66330;52.166;9.978;2023-09-30T06:41:30;3.30;;;1.97;;
77276;SDS011;66330;52.166;9.978;2023-09-30T06:43:56;4.70;;;1.93;;
77276;SDS011;66330;52.166;9.978;2023-09-30T06:46:22;2.80;;;1.60;;
77276;SDS011;66330;52.166;9.978;2023-09-30T06:48:49;3.27;;;2.10;;
77276;SDS011;66330;52.166;9.978;2023-09-30T06:51:16;3.83;;;2.07;;
77276;SDS011;66330;52.166;9.978;2023-09-30T06:53:42;4.77;;;2.70;;
77276;SDS011;66330;52.166;9.978;2023-09-30T06:56:08;2.57;;;1.50;;
77276;SDS011;66330;52.166;9.978;2023-09-30T06:58:34;2.80;;;1.83;;
77276;SDS011;66330;52.166;9.978;2023-09-30T07:01:00;2.97;;;1.60;;
77276;SDS011;66330;52.166;9.978;2023-09-30T07:03:25;3.73;;;1.83;;
77276;SDS011;66330;52.166;9.978;2023-09-30T07:05:51;4.30;;;1.90;;
77276;SDS011;66330;52.166;9.978;2023-09-30T07:08:17;5.10;;;2.33;;
77276;SDS011;66330;52.166;9.978;2023-09-30T07:10:46;2.10;;;1.90;;
77276;SDS011;66330;52.166;9.978;2023-09-30T07:13:14;2.00;;;1.47;;
77276;SDS011;66330;52.166;9.978;2023-09-30T07:15:43;4.93;;;1.93;;
77276;SDS011;66330;52.166;9.978;2023-09-30T07:18:08;6.53;;;2.20;;
77276;SDS011;66330;52.166;9.978;2023-09-30T07:20:34;3.93;;;1.87;;
77276;SDS011;66330;52.166;9.978;2023-09-30T07:23:00;4.47;;;1.60;;
77276;SDS011;66330;52.166;9.978;2023-09-30T07:25:26;2.70;;;1.90;;
77276;SDS011;66330;52.166;9.978;2023-09-30T07:27:52;4.23;;;2.27;;
77276;SDS011;66330;52.166;9.978;2023-09-30T07:30:18;1.53;;;1.43;;
77276;SDS011;66330;52.166;9.978;2023-09-30T07:32:44;2.63;;;1.50;;
77276;SDS011;66330;52.166;9.978;2023-09-30T07:35:10;3.50;;;1.70;;
77276;SDS011;66330;52.166;9.978;2023-09-30T07:37:37;6.13;;;1.80;;
77276;SDS011;66330;52.166;9.978;2023-09-30T07:40:02;6.00;;;1.93;;
77276;SDS011;66330;52.166;9.978;2023-09-30T07:42:29;2.80;;;1.63;;
77276;SDS011;66330;52.166;9.978;2023-09-30T07:44:55;8.03;;;2.13;;
77276;SDS011;66330;52.166;9.978;2023-09-30T07:47:21;5.83;;;2.30;;
77276;SDS011;66330;52.166;9.978;2023-09-30T07:49:46;6.60;;;1.87;;
77276;SDS011;66330;52.166;9.978;2023-09-30T07:52:12;2.63;;;2.33;;
77276;SDS011;66330;52.166;9.978;2023-09-30T07:54:37;3.30;;;2.07;;
77276;SDS011;66330;52.166;9.978;2023-09-30T07:57:03;4.90;;;1.83;;
77276;SDS011;66330;52.166;9.978;2023-09-30T07:59:30;3.40;;;2.37;;
77276;SDS011;66330;52.166;9.978;2023-09-30T08:01:55;3.97;;;1.57;;
77276;SDS011;66330;52.166;9.978;2023-09-30T08:04:22;2.63;;;1.80;;
77276;SDS011;66330;52.166;9.978;2023-09-30T08:06:48;4.37;;;1.80;;
77276;SDS011;66330;52.166;9.978;2023-09-30T08:09:14;4.10;;;2.00;;
77276;SDS011;66330;52.166;9.978;2023-09-30T08:11:39;4.07;;;1.90;;
77276;SDS011;66330;52.166;9.978;2023-09-30T08:14:05;3.57;;;2.50;;
77276;SDS011;66330;52.166;9.978;2023-09-30T08:16:34;2.63;;;1.67;;
77276;SDS011;66330;52.166;9.978;2023-09-30T08:19:00;3.07;;;1.50;;
77276;SDS011;66330;52.166;9.978;2023-09-30T08:21:25;3.30;;;2.20;;
77276;SDS011;66330;52.166;9.978;2023-09-30T08:23:51;4.80;;;2.40;;
77276;SDS011;66330;52.166;9.978;2023-09-30T08:26:17;3.90;;;2.20;;
77276;SDS011;66330;52.166;9.978;2023-09-30T08:28:42;1.87;;;1.40;;
77276;SDS011;66330;52.166;9.978;2023-09-30T08:31:08;4.47;;;2.27;;
77276;SDS011;66330;52.166;9.978;2023-09-30T08:33:34;4.60;;;2.13;;
77276;SDS011;66330;52.166;9.978;2023-09-30T08:36:04;2.30;;;1.80;;
77276;SDS011;66330;52.166;9.978;2023-09-30T08:38:36;3.03;;;1.43;;
77276;SDS011;66330;52.166;9.978;2023-09-30T08:41:09;3.47;;;1.77;;
77276;SDS011;66330;52.166;9.978;2023-09-30T08:43:38;5.80;;;1.60;;
77276;SDS011;66330;52.166;9.978;2023-09-30T08:46:05;2.10;;;1.57;;
77276;SDS011;66330;52.166;9.978;2023-09-30T08:48:34;2.70;;;1.87;;
77276;SDS011;66330;52.166;9.978;2023-09-30T08:51:00;5.60;;;2.77;;
77276;SDS011;66330;52.166;9.978;2023-09-30T08:53:27;5.40;;;2.13;;
77276;SDS011;66330;52.166;9.978;2023-09-30T08:55:54;6.07;;;1.93;;
77276;SDS011;66330;52.166;9.978;2023-09-30T08:58:26;6.20;;;2.40;;
77276;SDS011;66330;52.166;9.978;2023-09-30T09:00:52;3.70;;;1.57;;
77276;SDS011;66330;52.166;9.978;2023-09-30T09:03:18;5.80;;;1.70;;
77276;SDS011;66330;52.166;9.978;2023-09-30T09:05:45;2.97;;;1.47;;
77276;SDS011;66330;52.166;9.978;2023-09-30T09:08:11;2.37;;;1.80;;
77276;SDS011;66330;52.166;9.978;2023-09-30T09:10:46;3.97;;;1.70;;
77276;SDS011;66330;52.166;9.978;2023-09-30T09:13:23;4.10;;;1.97;;
77276;SDS011;66330;52.166;9.978;2023-09-30T09:16:07;3.23;;;2.20;;
77276;SDS011;66330;52.166;9.978;2023-09-30T09:18:36;3.10;;;2.20;;
77276;SDS011;66330;52.166;9.978;2023-09-30T09:21:09;4.40;;;1.80;;
77276;SDS011;66330;52.166;9.978;2023-09-30T09:23:42;3.33;;;1.57;;
77276;SDS011;66330;52.166;9.978;2023-09-30T09:26:09;2.97;;;2.23;;
77276;SDS011;66330;52.166;9.978;2023-09-30T09:28:49;3.13;;;1.60;;
77276;SDS011;66330;52.166;9.978;2023-09-30T09:31:28;4.80;;;1.80;;
77276;SDS011;66330;52.166;9.978;2023-09-30T09:33:55;3.37;;;1.90;;
77276;SDS011;66330;52.166;9.978;2023-09-30T09:36:22;3.27;;;1.43;;
77276;SDS011;66330;52.166;9.978;2023-09-30T09:39:06;2.50;;;2.17;;
77276;SDS011;66330;52.166;9.978;2023-09-30T09:41:32;5.07;;;1.73;;
77276;SDS011;66330;52.166;9.978;2023-09-30T09:43:58;3.07;;;1.30;;
77276;SDS011;66330;52.166;9.978;2023-09-30T09:46:24;5.23;;;1.90;;
77276;SDS011;66330;52.166;9.978;2023-09-30T09:48:51;4.17;;;1.80;;
77276;SDS011;66330;52.166;9.978;2023-09-30T09:51:18;3.17;;;1.57;;
77276;SDS011;66330;52.166;9.978;2023-09-30T09:53:46;2.30;;;2.07;;
77276;SDS011;66330;52.166;9.978;2023-09-30T09:56:14;2.10;;;1.30;;
77276;SDS011;66330;52.166;9.978;2023-09-30T09:58:41;2.50;;;1.67;;
77276;SDS011;66330;52.166;9.978;2023-09-30T10:01:09;4.63;;;1.90;;
77276;SDS011;66330;52.166;9.978;2023-09-30T10:03:35;4.40;;;1.87;;
77276;SDS011;66330;52.166;9.978;2023-09-30T10:06:03;3.90;;;1.70;;
77276;SDS011;66330;52.166;9.978;2023-09-30T10:08:33;1.90;;;1.57;;
77276;SDS011;66330;52.166;9.978;2023-09-30T10:11:04;3.10;;;1.77;;
77276;SDS011;66330;52.166;9.978;2023-09-30T10:19:11;2.90;;;1.60;;
77276;SDS011;66330;52.166;9.978;2023-09-30T10:21:38;1.67;;;1.17;;
77276;SDS011;66330;52.166;9.978;2023-09-30T10:27:27;1.30;;;0.93;;
77276;SDS011;66330;52.166;9.978;2023-09-30T10:36:04;1.10;;;1.00;;
77276;SDS011;66330;52.166;9.978;2023-09-30T10:40:49;1.27;;;1.17;;
77276;SDS011;66330;52.166;9.978;2023-09-30T10:43:31;3.10;;;1.37;;
77276;SDS011;66330;52.166;9.978;2023-09-30T10:46:29;1.87;;;1.20;;
77276;SDS011;66330;52.166;9.978;2023-09-30T10:48:51;3.00;;;1.10;;
77276;SDS011;66330;52.166;9.978;2023-09-30T10:51:17;1.70;;;1.20;;
77276;SDS011;66330;52.166;9.978;2023-09-30T10:53:46;3.80;;;1.47;;
77276;SDS011;66330;52.166;9.978;2023-09-30T10:56:15;1.60;;;1.10;;
77276;SDS011;66330;52.166;9.978;2023-09-30T10:58:41;3.63;;;1.43;;
77276;SDS011;66330;52.166;9.978;2023-09-30T11:01:07;2.73;;;1.20;;
77276;SDS011;66330;52.166;9.978;2023-09-30T11:03:33;2.63;;;1.23;;
77276;SDS011;66330;52.166;9.978;2023-09-30T11:05:59;3.77;;;1.40;;
77276;SDS011;66330;52.166;9.978;2023-09-30T11:08:24;1.53;;;1.20;;
77276;SDS011;66330;52.166;9.978;2023-09-30T11:10:55;1.87;;;0.70;;
77276;SDS011;66330;52.166;9.978;2023-09-30T11:13:21;1.80;;;0.90;;
77276;SDS011;66330;52.166;9.978;2023-09-30T11:15:47;2.53;;;1.30;;
77276;SDS011;66330;52.166;9.978;2023-09-30T11:18:24;2.10;;;1.03;;
77276;SDS011;66330;52.166;9.978;2023-09-30T11:20:49;2.17;;;1.00;;
77276;SDS011;66330;52.166;9.978;2023-09-30T11:23:15;0.90;;;0.50;;
77276;SDS011;66330;52.166;9.978;2023-09-30T11:25:41;1.67;;;0.90;;
77276;SDS011;66330;52.166;9.978;2023-09-30T11:28:16;1.97;;;0.97;;
77276;SDS011;66330;52.166;9.978;2023-09-30T11:30:59;2.10;;;1.00;;
77276;SDS011;66330;52.166;9.978;2023-09-30T11:33:31;0.90;;;0.60;;
77276;SDS011;66330;52.166;9.978;2023-09-30T11:36:02;2.10;;;0.83;;
77276;SDS011;66330;52.166;9.978;2023-09-30T11:38:29;1.70;;;0.83;;
77276;SDS011;66330;52.166;9.978;2023-09-30T11:41:01;1.33;;;0.80;;
77276;SDS011;66330;52.166;9.978;2023-09-30T11:43:32;0.90;;;0.80;;
77276;SDS011;66330;52.166;9.978;2023-09-30T11:46:08;1.63;;;0.83;;
77276;SDS011;66330;52.166;9.978;2023-09-30T11:48:36;1.37;;;0.80;;
77276;SDS011;66330;52.166;9.978;2023-09-30T11:51:02;2.00;;;0.90;;
77276;SDS011;66330;52.166;9.978;2023-09-30T11:53:31;3.53;;;0.90;;
77276;SDS011;66330;52.166;9.978;2023-09-30T11:56:00;1.23;;;0.60;;
77276;SDS011;66330;52.166;9.978;2023-09-30T11:58:27;2.20;;;1.30;;
77276;SDS011;66330;52.166;9.978;2023-09-30T12:00:54;1.63;;;0.87;;
77276;SDS011;66330;52.166;9.978;2023-09-30T12:03:20;3.50;;;1.17;;
77276;SDS011;66330;52.166;9.978;2023-09-30T12:05:46;1.57;;;0.77;;
77276;SDS011;66330;52.166;9.978;2023-09-30T12:08:12;1.97;;;0.77;;
77276;SDS011;66330;52.166;9.978;2023-09-30T12:10:39;2.17;;;0.90;;
77276;SDS011;66330;52.166;9.978;2023-09-30T12:13:05;1.23;;;1.13;;
77276;SDS011;66330;52.166;9.978;2023-09-30T12:15:31;1.33;;;1.20;;
77276;SDS011;66330;52.166;9.978;2023-09-30T12:17:56;2.60;;;1.03;;
77276;SDS011;66330;52.166;9.978;2023-09-30T12:20:22;1.07;;;0.80;;
77276;SDS011;66330;52.166;9.978;2023-09-30T12:22:48;1.13;;;0.90;;
77276;SDS011;66330;52.166;9.978;2023-09-30T12:25:13;2.47;;;0.90;;
77276;SDS011;66330;52.166;9.978;2023-09-30T12:27:39;1.53;;;0.80;;
77276;SDS011;66330;52.166;9.978;2023-09-30T12:30:05;1.37;;;0.90;;
77276;SDS011;66330;52.166;9.978;2023-09-30T12:32:31;1.67;;;0.90;;
77276;SDS011;66330;52.166;9.978;2023-09-30T12:34:57;1.20;;;0.80;;
77276;SDS011;66330;52.166;9.978;2023-09-30T12:37:23;0.80;;;0.80;;
77276;SDS011;66330;52.166;9.978;2023-09-30T12:39:48;1.23;;;0.90;;
77276;SDS011;66330;52.166;9.978;2023-09-30T12:42:14;1.10;;;0.80;;
77276;SDS011;66330;52.166;9.978;2023-09-30T12:44:40;2.20;;;1.10;;
77276;SDS011;66330;52.166;9.978;2023-09-30T12:47:06;1.20;;;0.80;;
77276;SDS011;66330;52.166;9.978;2023-09-30T12:49:32;1.57;;;0.97;;
77276;SDS011;66330;52.166;9.978;2023-09-30T12:51:57;3.23;;;1.13;;
77276;SDS011;66330;52.166;9.978;2023-09-30T12:54:24;2.00;;;0.97;;
77276;SDS011;66330;52.166;9.978;2023-09-30T12:56:50;2.07;;;1.10;;
77276;SDS011;66330;52.166;9.978;2023-09-30T12:59:16;2.77;;;0.90;;
77276;SDS011;66330;52.166;9.978;2023-09-30T13:01:49;1.37;;;0.80;;
77276;SDS011;66330;52.166;9.978;2023-09-30T13:04:15;2.67;;;1.40;;
77276;SDS011;66330;52.166;9.978;2023-09-30T13:06:40;1.27;;;1.07;;
77276;SDS011;66330;52.166;9.978;2023-09-30T13:09:06;2.10;;;1.10;;
77276;SDS011;66330;52.166;9.978;2023-09-30T13:11:35;2.20;;;1.30;;
77276;SDS011;66330;52.166;9.978;2023-09-30T13:14:00;3.20;;;1.50;;
77276;SDS011;66330;52.166;9.978;2023-09-30T13:16:26;1.33;;;1.00;;
77276;SDS011;66330;52.166;9.978;2023-09-30T13:18:51;1.63;;;1.00;;
77276;SDS011;66330;52.166;9.978;2023-09-30T13:21:17;1.67;;;1.03;;
77276;SDS011;66330;52.166;9.978;2023-09-30T13:23:43;1.53;;;1.23;;
77276;SDS011;66330;52.166;9.978;2023-09-30T13:26:09;0.80;;;0.80;;
77276;SDS011;66330;52.166;9.978;2023-09-30T13:28:34;2.23;;;1.23;;
77276;SDS011;66330;52.166;9.978;2023-09-30T13:31:00;1.37;;;1.10;;
77276;SDS011;66330;52.166;9.978;2023-09-30T13:33:26;1.13;;;0.97;;
77276;SDS011;66330;52.166;9.978;2023-09-30T13:35:51;1.33;;;1.23;;
77276;SDS011;66330;52.166;9.978;2023-09-30T13:38:17;2.97;;;0.90;;
77276;SDS011;66330;52.166;9.978;2023-09-30T13:40:42;2.30;;;1.47;;
77276;SDS011;66330;52.166;9.978;2023-09-30T13:43:09;2.60;;;1.37;;
77276;SDS011;66330;52.166;9.978;2023-09-30T13:45:35;1.70;;;1.40;;
77276;SDS011;66330;52.166;9.978;2023-09-30T13:48:02;2.30;;;1.30;;
77276;SDS011;66330;52.166;9.978;2023-09-30T13:50:27;2.50;;;1.43;;
77276;SDS011;66330;52.166;9.978;2023-09-30T13:52:53;1.40;;;1.30;;
77276;SDS011;66330;52.166;9.978;2023-09-30T13:55:18;3.80;;;1.30;;
77276;SDS011;66330;52.166;9.978;2023-09-30T13:57:45;2.07;;;1.13;;
77276;SDS011;66330;52.166;9.978;2023-09-30T14:00:11;1.60;;;1.10;;
77276;SDS011;66330;52.166;9.978;2023-09-30T14:02:38;1.57;;;1.30;;
77276;SDS011;66330;52.166;9.978;2023-09-30T14:05:04;2.30;;;1.83;;
77276;SDS011;66330;52.166;9.978;2023-09-30T14:07:33;2.20;;;1.27;;
77276;SDS011;66330;52.166;9.978;2023-09-30T14:09:59;1.80;;;1.10;;
77276;SDS011;66330;52.166;9.978;2023-09-30T14:12:24;1.40;;;1.30;;
77276;SDS011;66330;52.166;9.978;2023-09-30T14:14:50;2.17;;;1.07;;
77276;SDS011;66330;52.166;9.978;2023-09-30T14:17:16;1.67;;;1.03;;
77276;SDS011;66330;52.166;9.978;2023-09-30T14:19:42;1.67;;;1.30;;
77276;SDS011;66330;52.166;9.978;2023-09-30T14:22:08;2.83;;;1.40;;
77276;SDS011;66330;52.166;9.978;2023-09-30T14:24:34;2.70;;;1.27;;
77276;SDS011;66330;52.166;9.978;2023-09-30T14:27:03;3.90;;;1.60;;
77276;SDS011;66330;52.166;9.978;2023-09-30T14:29:32;3.70;;;1.07;;
77276;SDS011;66330;52.166;9.978;2023-09-30T14:31:57;3.07;;;1.63;;
77276;SDS011;66330;52.166;9.978;2023-09-30T14:34:24;4.37;;;1.63;;
77276;SDS011;66330;52.166;9.978;2023-09-30T14:36:50;1.70;;;1.23;;
77276;SDS011;66330;52.166;9.978;2023-09-30T14:39:16;1.80;;;0.90;;
77276;SDS011;66330;52.166;9.978;2023-09-30T14:41:43;3.10;;;1.40;;
77276;SDS011;66330;52.166;9.978;2023-09-30T14:44:09;3.03;;;1.90;;
77276;SDS011;66330;52.166;9.978;2023-09-30T14:46:37;1.63;;;1.10;;
77276;SDS011;66330;52.166;9.978;2023-09-30T14:49:03;2.23;;;1.20;;
77276;SDS011;66330;52.166;9.978;2023-09-30T14:51:29;4.50;;;1.10;;
77276;SDS011;66330;52.166;9.978;2023-09-30T14:53:54;3.23;;;1.37;;
77276;SDS011;66330;52.166;9.978;2023-09-30T14:56:20;1.73;;;1.10;;
77276;SDS011;66330;52.166;9.978;2023-09-30T14:58:46;2.20;;;1.10;;
77276;SDS011;66330;52.166;9.978;2023-09-30T15:01:12;2.10;;;0.97;;
77276;SDS011;66330;52.166;9.978;2023-09-30T15:03:40;2.60;;;1.20;;